sensor_id;sensor_type;location;lat;lon;timestamp;pressure;altitude;pressure_sealevel;temperature;humidity
39891;BME280;25564;53.312;9.790;2022-12-24T00:00:48;99676.22;;;5.66;100.00
39891;BME280;25564;53.312;9.790;2022-12-24T00:03:19;99669.16;;;5.69;100.00
39891;BME280;25564;53.312;9.790;2022-12-24T00:05:51;99690.91;;;5.82;100.00
39891;BME280;25564;53.312;9.790;2022-12-24T00:08:23;99682.13;;;5.81;100.00
39891;BME280;25564;53.312;9.790;2022-12-24T00:10:54;99700.53;;;5.84;100.00
39891;BME280;25564;53.312;9.790;2022-12-24T00:13:25;99694.38;;;5.85;100.00
39891;BME280;25564;53.312;9.790;2022-12-24T00:15:57;99692.69;;;5.80;100.00
39891;BME280;25564;53.312;9.790;2022-12-24T00:18:28;99707.56;;;5.82;100.00
39891;BME280;25564;53.312;9.790;2022-12-24T00:20:59;99696.19;;;5.80;100.00
39891;BME280;25564;53.312;9.790;2022-12-24T00:23:33;99690.00;;;5.83;100.00
39891;BME280;25564;53.312;9.790;2022-12-24T00:26:05;99680.50;;;5.74;100.00
39891;BME280;25564;53.312;9.790;2022-12-24T00:28:36;99697.06;;;5.81;100.00
39891;BME280;25564;53.312;9.790;2022-12-24T00:31:13;99668.31;;;5.67;100.00
39891;BME280;25564;53.312;9.790;2022-12-24T00:33:46;99693.59;;;5.77;100.00
39891;BME280;25564;53.312;9.790;2022-12-24T00:36:18;99685.75;;;5.74;100.00
39891;BME280;25564;53.312;9.790;2022-12-24T00:38:49;99693.63;;;5.76;100.00
39891;BME280;25564;53.312;9.790;2022-12-24T00:41:21;99675.34;;;5.65;100.00
39891;BME280;25564;53.312;9.790;2022-12-24T00:43:59;99682.22;;;5.75;100.00
39891;BME280;25564;53.312;9.790;2022-12-24T00:46:32;99693.66;;;5.74;100.00
39891;BME280;25564;53.312;9.790;2022-12-24T00:49:05;99684.13;;;5.66;100.00
39891;BME280;25564;53.312;9.790;2022-12-24T00:51:37;99694.56;;;5.72;100.00
39891;BME280;25564;53.312;9.790;2022-12-24T00:54:09;99688.44;;;5.71;100.00
39891;BME280;25564;53.312;9.790;2022-12-24T00:56:40;99696.38;;;5.68;100.00
39891;BME280;25564;53.312;9.790;2022-12-24T00:59:12;99695.47;;;5.69;100.00
39891;BME280;25564;53.312;9.790;2022-12-24T01:01:43;99705.13;;;5.70;100.00
39891;BME280;25564;53.312;9.790;2022-12-24T01:04:14;99697.31;;;5.64;100.00
39891;BME280;25564;53.312;9.790;2022-12-24T01:07:04;99685.09;;;5.58;100.00
39891;BME280;25564;53.312;9.790;2022-12-24T01:09:36;99687.72;;;5.58;100.00
39891;BME280;25564;53.312;9.790;2022-12-24T01:12:07;99679.94;;;5.51;100.00
39891;BME280;25564;53.312;9.790;2022-12-24T01:14:38;99707.91;;;5.59;100.00
39891;BME280;25564;53.312;9.790;2022-12-24T01:17:10;99690.47;;;5.51;100.00
39891;BME280;25564;53.312;9.790;2022-12-24T01:19:41;99712.22;;;5.64;100.00
39891;BME280;25564;53.312;9.790;2022-12-24T01:22:12;99714.88;;;5.62;100.00
39891;BME280;25564;53.312;9.790;2022-12-24T01:24:44;99717.50;;;5.62;100.00
39891;BME280;25564;53.312;9.790;2022-12-24T01:27:15;99705.41;;;5.49;100.00
39891;BME280;25564;53.312;9.790;2022-12-24T01:29:46;99726.34;;;5.58;100.00
39891;BME280;25564;53.312;9.790;2022-12-24T01:32:17;99733.38;;;5.56;100.00
39891;BME280;25564;53.312;9.790;2022-12-24T01:34:49;99690.75;;;5.30;100.00
39891;BME280;25564;53.312;9.790;2022-12-24T01:37:20;99732.50;;;5.57;100.00
39891;BME280;25564;53.312;9.790;2022-12-24T01:39:51;99745.66;;;5.57;100.00
39891;BME280;25564;53.312;9.790;2022-12-24T01:42:46;99741.25;;;5.57;100.00
39891;BME280;25564;53.312;9.790;2022-12-24T01:45:43;99739.50;;;5.58;100.00
39891;BME280;25564;53.312;9.790;2022-12-24T01:50:57;99717.78;;;5.42;100.00
39891;BME280;25564;53.312;9.790;2022-12-24T01:53:30;99725.66;;;5.44;100.00
39891;BME280;25564;53.312;9.790;2022-12-24T01:56:04;99748.28;;;5.57;100.00
39891;BME280;25564;53.312;9.790;2022-12-24T01:58:38;99745.69;;;5.54;100.00
39891;BME280;25564;53.312;9.790;2022-12-24T02:01:10;99762.31;;;5.56;100.00
39891;BME280;25564;53.312;9.790;2022-12-24T02:03:42;99761.44;;;5.57;100.00
39891;BME280;25564;53.312;9.790;2022-12-24T02:06:14;99753.59;;;5.52;100.00
39891;BME280;25564;53.312;9.790;2022-12-24T02:08:47;99761.41;;;5.58;100.00
39891;BME280;25564;53.312;9.790;2022-12-24T02:11:20;99760.56;;;5.58;100.00
39891;BME280;25564;53.312;9.790;2022-12-24T02:13:55;99754.50;;;5.50;100.00
39891;BME280;25564;53.312;9.790;2022-12-24T02:16:41;99746.69;;;5.44;100.00
39891;BME280;25564;53.312;9.790;2022-12-24T02:19:27;99764.97;;;5.54;100.00
39891;BME280;25564;53.312;9.790;2022-12-24T02:22:13;99757.13;;;5.50;100.00
39891;BME280;25564;53.312;9.790;2022-12-24T02:25:14;99765.88;;;5.52;100.00
39891;BME280;25564;53.312;9.790;2022-12-24T02:27:55;99770.28;;;5.51;100.00
39891;BME280;25564;53.312;9.790;2022-12-24T02:31:03;99750.22;;;5.41;100.00
39891;BME280;25564;53.312;9.790;2022-12-24T02:34:07;99783.44;;;5.50;100.00
39891;BME280;25564;53.312;9.790;2022-12-24T02:36:48;99747.78;;;5.26;100.00
39891;BME280;25564;53.312;9.790;2022-12-24T02:39:29;99791.34;;;5.51;100.00
39891;BME280;25564;53.312;9.790;2022-12-24T02:42:04;99786.09;;;5.50;100.00
39891;BME280;25564;53.312;9.790;2022-12-24T02:44:44;99779.97;;;5.48;100.00
39891;BME280;25564;53.312;9.790;2022-12-24T02:47:18;99801.81;;;5.54;100.00
39891;BME280;25564;53.312;9.790;2022-12-24T02:49:52;99792.16;;;5.55;100.00
39891;BME280;25564;53.312;9.790;2022-12-24T02:52:43;99786.97;;;5.50;100.00
39891;BME280;25564;53.312;9.790;2022-12-24T02:55:19;99766.94;;;5.37;100.00
39891;BME280;25564;53.312;9.790;2022-12-24T02:58:27;99803.56;;;5.55;100.00
39891;BME280;25564;53.312;9.790;2022-12-24T03:04:18;99764.31;;;5.37;100.00
39891;BME280;25564;53.312;9.790;2022-12-24T03:07:27;99789.59;;;5.49;100.00
39891;BME280;25564;53.312;9.790;2022-12-24T03:12:55;99798.38;;;5.48;100.00
39891;BME280;25564;53.312;9.790;2022-12-24T03:15:28;99788.78;;;5.44;100.00
39891;BME280;25564;53.312;9.790;2022-12-24T03:18:04;99802.75;;;5.49;100.00
39891;BME280;25564;53.312;9.790;2022-12-24T03:20:43;99806.28;;;5.48;100.00
39891;BME280;25564;53.312;9.790;2022-12-24T03:23:15;99810.69;;;5.46;100.00
39891;BME280;25564;53.312;9.790;2022-12-24T03:25:47;99785.34;;;5.37;100.00
39891;BME280;25564;53.312;9.790;2022-12-24T03:28:25;99812.41;;;5.50;100.00
39891;BME280;25564;53.312;9.790;2022-12-24T03:31:00;99822.03;;;5.51;100.00
39891;BME280;25564;53.312;9.790;2022-12-24T03:33:32;99795.91;;;5.36;100.00
39891;BME280;25564;53.312;9.790;2022-12-24T03:36:05;99826.41;;;5.53;100.00
39891;BME280;25564;53.312;9.790;2022-12-24T03:38:36;99834.28;;;5.55;100.00
39891;BME280;25564;53.312;9.790;2022-12-24T03:41:09;99829.03;;;5.52;100.00
39891;BME280;25564;53.312;9.790;2022-12-24T03:43:40;99817.69;;;5.47;100.00
39891;BME280;25564;53.312;9.790;2022-12-24T03:46:12;99817.69;;;5.48;100.00
39891;BME280;25564;53.312;9.790;2022-12-24T03:48:43;99830.78;;;5.53;100.00
39891;BME280;25564;53.312;9.790;2022-12-24T03:51:20;99829.06;;;5.49;100.00
39891;BME280;25564;53.312;9.790;2022-12-24T03:53:53;99828.19;;;5.48;100.00
39891;BME280;25564;53.312;9.790;2022-12-24T03:56:25;99829.09;;;5.46;100.00
39891;BME280;25564;53.312;9.790;2022-12-24T03:58:56;99829.13;;;5.44;100.00
39891;BME280;25564;53.312;9.790;2022-12-24T04:01:28;99816.06;;;5.35;100.00
39891;BME280;25564;53.312;9.790;2022-12-24T04:03:59;99837.09;;;5.38;100.00
39891;BME280;25564;53.312;9.790;2022-12-24T04:06:31;99845.78;;;5.45;100.00
39891;BME280;25564;53.312;9.790;2022-12-24T04:09:02;99845.78;;;5.46;100.00
39891;BME280;25564;53.312;9.790;2022-12-24T04:11:35;99848.41;;;5.45;100.00
39891;BME280;25564;53.312;9.790;2022-12-24T04:14:06;99834.50;;;5.34;100.00
39891;BME280;25564;53.312;9.790;2022-12-24T04:16:37;99846.78;;;5.35;100.00
39891;BME280;25564;53.312;9.790;2022-12-24T04:19:09;99858.16;;;5.35;100.00
39891;BME280;25564;53.312;9.790;2022-12-24T04:21:40;99864.28;;;5.36;100.00
39891;BME280;25564;53.312;9.790;2022-12-24T04:24:12;99862.53;;;5.36;100.00
39891;BME280;25564;53.312;9.790;2022-12-24T04:26:43;99855.50;;;5.37;100.00
39891;BME280;25564;53.312;9.790;2022-12-24T04:29:14;99866.00;;;5.40;100.00
39891;BME280;25564;53.312;9.790;2022-12-24T04:31:45;99865.13;;;5.39;100.00
39891;BME280;25564;53.312;9.790;2022-12-24T04:34:17;99847.69;;;5.31;100.00
39891;BME280;25564;53.312;9.790;2022-12-24T04:36:48;99863.41;;;5.35;100.00
39891;BME280;25564;53.312;9.790;2022-12-24T04:39:19;99872.16;;;5.37;100.00
39891;BME280;25564;53.312;9.790;2022-12-24T04:41:51;99859.91;;;5.36;100.00
39891;BME280;25564;53.312;9.790;2022-12-24T04:44:22;99847.72;;;5.28;100.00
39891;BME280;25564;53.312;9.790;2022-12-24T04:46:53;99867.78;;;5.36;100.00
39891;BME280;25564;53.312;9.790;2022-12-24T04:49:25;99869.53;;;5.37;100.00
39891;BME280;25564;53.312;9.790;2022-12-24T04:51:56;99841.63;;;5.22;100.00
39891;BME280;25564;53.312;9.790;2022-12-24T04:54:27;99859.06;;;5.33;100.00
39891;BME280;25564;53.312;9.790;2022-12-24T04:57:01;99836.47;;;5.16;100.00
39891;BME280;25564;53.312;9.790;2022-12-24T04:59:32;99860.84;;;5.31;100.00
39891;BME280;25564;53.312;9.790;2022-12-24T05:02:03;99857.34;;;5.29;100.00
39891;BME280;25564;53.312;9.790;2022-12-24T05:04:35;99852.16;;;5.22;100.00
39891;BME280;25564;53.312;9.790;2022-12-24T05:07:06;99868.72;;;5.31;100.00
39891;BME280;25564;53.312;9.790;2022-12-24T05:09:37;99866.09;;;5.31;100.00
39891;BME280;25564;53.312;9.790;2022-12-24T05:12:09;99874.84;;;5.33;100.00
39891;BME280;25564;53.312;9.790;2022-12-24T05:14:40;99872.25;;;5.30;100.00
39891;BME280;25564;53.312;9.790;2022-12-24T05:17:11;99878.31;;;5.38;100.00
39891;BME280;25564;53.312;9.790;2022-12-24T05:19:43;99876.56;;;5.35;100.00
39891;BME280;25564;53.312;9.790;2022-12-24T05:22:14;99887.91;;;5.42;100.00
39891;BME280;25564;53.312;9.790;2022-12-24T05:25:05;99887.88;;;5.45;100.00
39891;BME280;25564;53.312;9.790;2022-12-24T05:27:54;99872.25;;;5.30;100.00
39891;BME280;25564;53.312;9.790;2022-12-24T05:30:27;99873.09;;;5.32;100.00
39891;BME280;25564;53.312;9.790;2022-12-24T05:32:58;99894.06;;;5.41;100.00
39891;BME280;25564;53.312;9.790;2022-12-24T05:35:29;99908.06;;;5.43;100.00
39891;BME280;25564;53.312;9.790;2022-12-24T05:38:01;99901.94;;;5.42;100.00
39891;BME280;25564;53.312;9.790;2022-12-24T05:40:32;99898.53;;;5.31;100.00
39891;BME280;25564;53.312;9.790;2022-12-24T05:43:04;99904.63;;;5.36;100.00
39891;BME280;25564;53.312;9.790;2022-12-24T05:45:35;99913.41;;;5.37;100.00
39891;BME280;25564;53.312;9.790;2022-12-24T05:48:06;99911.66;;;5.36;100.00
39891;BME280;25564;53.312;9.790;2022-12-24T05:50:39;99923.84;;;5.43;100.00
39891;BME280;25564;53.312;9.790;2022-12-24T05:53:10;99920.38;;;5.41;100.00
39891;BME280;25564;53.312;9.790;2022-12-24T05:55:42;99909.06;;;5.31;100.00
39891;BME280;25564;53.312;9.790;2022-12-24T05:58:14;99914.25;;;5.37;100.00
39891;BME280;25564;53.312;9.790;2022-12-24T06:00:45;99923.84;;;5.43;100.00
39891;BME280;25564;53.312;9.790;2022-12-24T06:03:17;99926.50;;;5.41;100.00
39891;BME280;25564;53.312;9.790;2022-12-24T06:05:48;99924.75;;;5.42;100.00
39891;BME280;25564;53.312;9.790;2022-12-24T06:08:27;99925.63;;;5.41;100.00
39891;BME280;25564;53.312;9.790;2022-12-24T06:11:02;99928.28;;;5.39;100.00
39891;BME280;25564;53.312;9.790;2022-12-24T06:13:34;99927.38;;;5.40;100.00
39891;BME280;25564;53.312;9.790;2022-12-24T06:16:07;99920.44;;;5.35;100.00
39891;BME280;25564;53.312;9.790;2022-12-24T06:18:40;99915.16;;;5.36;100.00
39891;BME280;25564;53.312;9.790;2022-12-24T06:21:11;99923.84;;;5.43;100.00
39891;BME280;25564;53.312;9.790;2022-12-24T06:23:43;99920.41;;;5.38;100.00
39891;BME280;25564;53.312;9.790;2022-12-24T06:26:18;99934.34;;;5.46;100.00
39891;BME280;25564;53.312;9.790;2022-12-24T06:28:50;99934.34;;;5.46;100.00
39891;BME280;25564;53.312;9.790;2022-12-24T06:31:26;99918.66;;;5.37;100.00
39891;BME280;25564;53.312;9.790;2022-12-24T06:33:57;99904.66;;;5.32;100.00
39891;BME280;25564;53.312;9.790;2022-12-24T06:36:29;99924.78;;;5.37;100.00
39891;BME280;25564;53.312;9.790;2022-12-24T06:39:00;99916.06;;;5.34;100.00
39891;BME280;25564;53.312;9.790;2022-12-24T06:41:32;99925.66;;;5.36;100.00
39891;BME280;25564;53.312;9.790;2022-12-24T06:44:03;99949.25;;;5.47;100.00
39891;BME280;25564;53.312;9.790;2022-12-24T06:46:34;99938.75;;;5.45;100.00
39891;BME280;25564;53.312;9.790;2022-12-24T06:49:06;99946.63;;;5.47;100.00
39891;BME280;25564;53.312;9.790;2022-12-24T06:51:37;99955.38;;;5.50;100.00
39891;BME280;25564;53.312;9.790;2022-12-24T06:54:09;99962.34;;;5.53;100.00
39891;BME280;25564;53.312;9.790;2022-12-24T06:56:40;99962.38;;;5.50;100.00
39891;BME280;25564;53.312;9.790;2022-12-24T06:59:11;99955.47;;;5.40;100.00
39891;BME280;25564;53.312;9.790;2022-12-24T07:01:42;99960.69;;;5.43;100.00
39891;BME280;25564;53.312;9.790;2022-12-24T07:04:14;99971.16;;;5.49;100.00
39891;BME280;25564;53.312;9.790;2022-12-24T07:06:50;99960.63;;;5.50;100.00
39891;BME280;25564;53.312;9.790;2022-12-24T07:09:22;99976.34;;;5.58;100.00
39891;BME280;25564;53.312;9.790;2022-12-24T07:11:53;99956.28;;;5.45;100.00
39891;BME280;25564;53.312;9.790;2022-12-24T07:14:24;99990.34;;;5.62;100.00
39891;BME280;25564;53.312;9.790;2022-12-24T07:16:56;99981.59;;;5.59;100.00
39891;BME280;25564;53.312;9.790;2022-12-24T07:19:29;99990.34;;;5.62;100.00
39891;BME280;25564;53.312;9.790;2022-12-24T07:22:01;99997.34;;;5.64;100.00
39891;BME280;25564;53.312;9.790;2022-12-24T07:24:32;99975.56;;;5.48;100.00
39891;BME280;25564;53.312;9.790;2022-12-24T07:27:03;99996.50;;;5.62;100.00
39891;BME280;25564;53.312;9.790;2022-12-24T07:29:35;100007.00;;;5.62;100.00
39891;BME280;25564;53.312;9.790;2022-12-24T07:32:06;100006.13;;;5.63;100.00
39891;BME280;25564;53.312;9.790;2022-12-24T07:34:37;99988.66;;;5.53;100.00
39891;BME280;25564;53.312;9.790;2022-12-24T07:37:09;100020.16;;;5.65;100.00
39891;BME280;25564;53.312;9.790;2022-12-24T07:39:41;100022.75;;;5.67;100.00
39891;BME280;25564;53.312;9.790;2022-12-24T07:42:12;100023.66;;;5.64;100.00
39891;BME280;25564;53.312;9.790;2022-12-24T07:44:43;100023.66;;;5.66;100.00
39891;BME280;25564;53.312;9.790;2022-12-24T07:47:15;100027.22;;;5.60;100.00
39891;BME280;25564;53.312;9.790;2022-12-24T07:49:46;100034.22;;;5.61;100.00
39891;BME280;25564;53.312;9.790;2022-12-24T07:52:17;100019.38;;;5.51;100.00
39891;BME280;25564;53.312;9.790;2022-12-24T07:54:49;100050.00;;;5.64;100.00
39891;BME280;25564;53.312;9.790;2022-12-24T07:57:20;100029.03;;;5.52;100.00
39891;BME280;25564;53.312;9.790;2022-12-24T07:59:51;100046.44;;;5.68;100.00
39891;BME280;25564;53.312;9.790;2022-12-24T08:02:23;100042.06;;;5.67;100.00
39891;BME280;25564;53.312;9.790;2022-12-24T08:04:54;100061.28;;;5.77;100.00
39891;BME280;25564;53.312;9.790;2022-12-24T08:07:26;100056.00;;;5.80;100.00
39891;BME280;25564;53.312;9.790;2022-12-24T08:09:57;100059.50;;;5.79;100.00
39891;BME280;25564;53.312;9.790;2022-12-24T08:12:28;100061.28;;;5.77;100.00
39891;BME280;25564;53.312;9.790;2022-12-24T08:15:00;100048.19;;;5.69;100.00
39891;BME280;25564;53.312;9.790;2022-12-24T08:17:31;100072.66;;;5.82;100.00
39891;BME280;25564;53.312;9.790;2022-12-24T08:20:03;100074.34;;;5.87;100.00
39891;BME280;25564;53.312;9.790;2022-12-24T08:22:35;100075.25;;;5.89;100.00
39891;BME280;25564;53.312;9.790;2022-12-24T08:25:07;100073.47;;;5.93;100.00
39891;BME280;25564;53.312;9.790;2022-12-24T08:27:38;100083.09;;;5.94;100.00
39891;BME280;25564;53.312;9.790;2022-12-24T08:30:10;100075.22;;;5.94;100.00
39891;BME280;25564;53.312;9.790;2022-12-24T08:32:49;100069.13;;;5.83;100.00
39891;BME280;25564;53.312;9.790;2022-12-24T08:35:20;100096.25;;;5.99;100.00
39891;BME280;25564;53.312;9.790;2022-12-24T08:37:52;100101.47;;;6.03;100.00
39891;BME280;25564;53.312;9.790;2022-12-24T08:40:23;100104.06;;;6.08;100.00
39891;BME280;25564;53.312;9.790;2022-12-24T08:42:55;100093.53;;;6.05;100.00
39891;BME280;25564;53.312;9.790;2022-12-24T08:45:26;100110.16;;;6.13;100.00
39891;BME280;25564;53.312;9.790;2022-12-24T08:47:58;100104.03;;;6.11;100.00
39891;BME280;25564;53.312;9.790;2022-12-24T08:50:30;100106.63;;;6.14;100.00
39891;BME280;25564;53.312;9.790;2022-12-24T08:53:01;100110.97;;;6.21;100.00
39891;BME280;25564;53.312;9.790;2022-12-24T08:55:33;100115.25;;;6.27;100.00
39891;BME280;25564;53.312;9.790;2022-12-24T08:58:05;100120.53;;;6.28;100.00
39891;BME280;25564;53.312;9.790;2022-12-24T09:00:36;100126.59;;;6.36;100.00
39891;BME280;25564;53.312;9.790;2022-12-24T09:03:13;100121.28;;;6.41;100.00
39891;BME280;25564;53.312;9.790;2022-12-24T09:05:44;100121.25;;;6.42;100.00
39891;BME280;25564;53.312;9.790;2022-12-24T09:08:16;100128.22;;;6.49;100.00
39891;BME280;25564;53.312;9.790;2022-12-24T09:10:47;100135.19;;;6.53;100.00
39891;BME280;25564;53.312;9.790;2022-12-24T09:13:18;100143.97;;;6.55;100.00
39891;BME280;25564;53.312;9.790;2022-12-24T09:15:54;100142.16;;;6.61;100.00
39891;BME280;25564;53.312;9.790;2022-12-24T09:18:25;100127.31;;;6.52;100.00
39891;BME280;25564;53.312;9.790;2022-12-24T09:20:58;100137.75;;;6.60;100.00
39891;BME280;25564;53.312;9.790;2022-12-24T09:23:30;100160.50;;;6.71;100.00
39891;BME280;25564;53.312;9.790;2022-12-24T09:26:15;100164.03;;;6.70;100.00
39891;BME280;25564;53.312;9.790;2022-12-24T09:28:47;100159.69;;;6.65;100.00
39891;BME280;25564;53.312;9.790;2022-12-24T09:31:19;100154.38;;;6.68;100.00
39891;BME280;25564;53.312;9.790;2022-12-24T09:33:52;100174.41;;;6.85;100.00
39891;BME280;25564;53.312;9.790;2022-12-24T09:36:23;100186.59;;;6.96;100.00
39891;BME280;25564;53.312;9.790;2022-12-24T09:38:55;100152.34;;;6.91;100.00
39891;BME280;25564;53.312;9.790;2022-12-24T09:44:40;100185.44;;;7.19;100.00
39891;BME280;25564;53.312;9.790;2022-12-24T09:47:35;100188.78;;;7.31;100.00
39891;BME280;25564;53.312;9.790;2022-12-24T09:50:27;100193.03;;;7.42;100.00
39891;BME280;25564;53.312;9.790;2022-12-24T09:53:04;100206.09;;;7.53;100.00
39891;BME280;25564;53.312;9.790;2022-12-24T09:55:48;100201.56;;;7.61;100.00
39891;BME280;25564;53.312;9.790;2022-12-24T09:58:30;100181.44;;;7.54;100.00
39891;BME280;25564;53.312;9.790;2022-12-24T10:01:04;100206.78;;;7.67;100.00
39891;BME280;25564;53.312;9.790;2022-12-24T10:03:36;100204.97;;;7.69;100.00
39891;BME280;25564;53.312;9.790;2022-12-24T10:06:13;100214.59;;;7.75;100.00
39891;BME280;25564;53.312;9.790;2022-12-24T10:09:16;100221.63;;;7.74;100.00
39891;BME280;25564;53.312;9.790;2022-12-24T10:18:00;100231.94;;;7.93;100.00
39891;BME280;25564;53.312;9.790;2022-12-24T10:20:53;100229.97;;;8.07;100.00
39891;BME280;25564;53.312;9.790;2022-12-24T10:23:57;100237.69;;;8.20;100.00
39891;BME280;25564;53.312;9.790;2022-12-24T10:26:45;100220.81;;;8.29;100.00
39891;BME280;25564;53.312;9.790;2022-12-24T10:29:19;100234.56;;;8.49;100.00
39891;BME280;25564;53.312;9.790;2022-12-24T10:34:51;100219.59;;;8.50;100.00
39891;BME280;25564;53.312;9.790;2022-12-24T10:37:27;100225.59;;;8.60;100.00
39891;BME280;25564;53.312;9.790;2022-12-24T10:40:01;100236.97;;;8.65;100.00
39891;BME280;25564;53.312;9.790;2022-12-24T10:42:38;100244.06;;;8.63;100.00
39891;BME280;25564;53.312;9.790;2022-12-24T10:45:23;100241.50;;;8.57;100.00
39891;BME280;25564;53.312;9.790;2022-12-24T10:47:58;100230.88;;;8.60;100.00
39891;BME280;25564;53.312;9.790;2022-12-24T10:50:35;100244.78;;;8.71;100.00
39891;BME280;25564;53.312;9.790;2022-12-24T10:53:20;100225.47;;;8.66;100.00
39891;BME280;25564;53.312;9.790;2022-12-24T10:56:05;100213.19;;;8.63;100.00
39891;BME280;25564;53.312;9.790;2022-12-24T10:58:42;100240.13;;;8.85;100.00
39891;BME280;25564;53.312;9.790;2022-12-24T11:01:14;100251.56;;;8.87;100.00
39891;BME280;25564;53.312;9.790;2022-12-24T11:03:59;100257.63;;;8.92;100.00
39891;BME280;25564;53.312;9.790;2022-12-24T11:06:31;100257.69;;;8.89;100.00
39891;BME280;25564;53.312;9.790;2022-12-24T11:11:55;100244.31;;;8.97;100.00
39891;BME280;25564;53.312;9.790;2022-12-24T11:14:35;100251.16;;;9.08;100.00
39891;BME280;25564;53.312;9.790;2022-12-24T11:17:18;100255.41;;;9.17;100.00
39891;BME280;25564;53.312;9.790;2022-12-24T11:19:51;100254.59;;;9.13;100.00
39891;BME280;25564;53.312;9.790;2022-12-24T11:22:27;100265.75;;;9.29;100.00
39891;BME280;25564;53.312;9.790;2022-12-24T11:25:18;100269.06;;;9.39;100.00
39891;BME280;25564;53.312;9.790;2022-12-24T11:27:50;100256.84;;;9.33;100.00
39891;BME280;25564;53.312;9.790;2022-12-24T11:30:30;100264.53;;;9.45;100.00
39891;BME280;25564;53.312;9.790;2022-12-24T11:35:39;100274.84;;;9.59;100.00
39891;BME280;25564;53.312;9.790;2022-12-24T11:38:18;100270.38;;;9.61;100.00
39891;BME280;25564;53.312;9.790;2022-12-24T11:41:01;100278.31;;;9.61;100.00
39891;BME280;25564;53.312;9.790;2022-12-24T11:43:37;100262.75;;;9.46;100.00
39891;BME280;25564;53.312;9.790;2022-12-24T11:46:35;100282.75;;;9.61;100.00
39891;BME280;25564;53.312;9.790;2022-12-24T11:51:59;100285.50;;;9.56;100.00
39891;BME280;25564;53.312;9.790;2022-12-24T11:57:57;100281.03;;;9.58;100.00
39891;BME280;25564;53.312;9.790;2022-12-24T12:00:31;100271.38;;;9.56;100.00
39891;BME280;25564;53.312;9.790;2022-12-24T12:03:03;100253.69;;;9.58;100.00
39891;BME280;25564;53.312;9.790;2022-12-24T12:05:35;100277.28;;;9.68;100.00
39891;BME280;25564;53.312;9.790;2022-12-24T12:08:19;100253.81;;;9.51;100.00
39891;BME280;25564;53.312;9.790;2022-12-24T12:10:52;100263.34;;;9.60;100.00
39891;BME280;25564;53.312;9.790;2022-12-24T12:13:29;100271.09;;;9.69;100.00
39891;BME280;25564;53.312;9.790;2022-12-24T12:16:27;100273.72;;;9.71;100.00
39891;BME280;25564;53.312;9.790;2022-12-24T12:19:03;100285.19;;;9.71;100.00
39891;BME280;25564;53.312;9.790;2022-12-24T12:21:45;100277.44;;;9.62;100.00
39891;BME280;25564;53.312;9.790;2022-12-24T12:24:25;100279.22;;;9.60;100.00
39891;BME280;25564;53.312;9.790;2022-12-24T12:27:18;100283.72;;;9.57;100.00
39891;BME280;25564;53.312;9.790;2022-12-24T12:29:56;100284.44;;;9.65;100.00
39891;BME280;25564;53.312;9.790;2022-12-24T12:33:11;100286.09;;;9.70;100.00
39891;BME280;25564;53.312;9.790;2022-12-24T12:35:45;100287.88;;;9.70;100.00
39891;BME280;25564;53.312;9.790;2022-12-24T12:38:21;100292.19;;;9.74;100.00
39891;BME280;25564;53.312;9.790;2022-12-24T12:41:22;100301.91;;;9.73;100.00
39891;BME280;25564;53.312;9.790;2022-12-24T12:44:39;100276.50;;;9.65;100.00
39891;BME280;25564;53.312;9.790;2022-12-24T12:47:42;100327.31;;;9.83;100.00
39891;BME280;25564;53.312;9.790;2022-12-24T12:50:32;100313.38;;;9.75;100.00
39891;BME280;25564;53.312;9.790;2022-12-24T12:56:28;100306.38;;;9.71;100.00
39891;BME280;25564;53.312;9.790;2022-12-24T12:59:23;100324.63;;;9.87;100.00
39891;BME280;25564;53.312;9.790;2022-12-24T13:02:35;100327.84;;;10.01;100.00
39891;BME280;25564;53.312;9.790;2022-12-24T13:05:30;100329.22;;;10.19;100.00
39891;BME280;25564;53.312;9.790;2022-12-24T13:14:11;100338.97;;;10.18;100.00
39891;BME280;25564;53.312;9.790;2022-12-24T13:19:43;100340.97;;;10.07;100.00
39891;BME280;25564;53.312;9.790;2022-12-24T13:22:20;100328.81;;;9.97;100.00
39891;BME280;25564;53.312;9.790;2022-12-24T13:24:53;100327.94;;;9.96;100.00
39891;BME280;25564;53.312;9.790;2022-12-24T13:27:27;100341.00;;;10.05;100.00
39891;BME280;25564;53.312;9.790;2022-12-24T13:30:36;100350.91;;;9.97;100.00
39891;BME280;25564;53.312;9.790;2022-12-24T13:33:12;100350.16;;;9.91;100.00
39891;BME280;25564;53.312;9.790;2022-12-24T13:36:02;100354.44;;;9.96;100.00
39891;BME280;25564;53.312;9.790;2022-12-24T13:44:13;100365.81;;;10.03;100.00
39891;BME280;25564;53.312;9.790;2022-12-24T13:46:56;100361.41;;;10.02;100.00
39891;BME280;25564;53.312;9.790;2022-12-24T13:49:51;100352.81;;;9.91;100.00
39891;BME280;25564;53.312;9.790;2022-12-24T13:52:28;100361.72;;;9.87;100.00
39891;BME280;25564;53.312;9.790;2022-12-24T13:55:06;100370.72;;;9.78;100.00
39891;BME280;25564;53.312;9.790;2022-12-24T13:57:59;100358.81;;;9.54;100.00
39891;BME280;25564;53.312;9.790;2022-12-24T14:00:38;100376.56;;;9.49;100.00
39891;BME280;25564;53.312;9.790;2022-12-24T14:05:46;100360.59;;;9.07;100.00
39891;BME280;25564;53.312;9.790;2022-12-24T14:11:21;100395.94;;;9.03;100.00
39891;BME280;25564;53.312;9.790;2022-12-24T14:14:08;100392.53;;;8.95;100.00
39891;BME280;25564;53.312;9.790;2022-12-24T14:17:00;100387.25;;;8.95;100.00
39891;BME280;25564;53.312;9.790;2022-12-24T14:19:40;100386.34;;;8.98;100.00
39891;BME280;25564;53.312;9.790;2022-12-24T14:24:58;100391.59;;;8.99;100.00
39891;BME280;25564;53.312;9.790;2022-12-24T14:27:58;100389.81;;;9.01;100.00
39891;BME280;25564;53.312;9.790;2022-12-24T14:30:33;100377.59;;;8.93;100.00
39891;BME280;25564;53.312;9.790;2022-12-24T14:33:04;100409.94;;;9.11;100.00
39891;BME280;25564;53.312;9.790;2022-12-24T14:35:37;100386.13;;;9.10;100.00
39891;BME280;25564;53.312;9.790;2022-12-24T14:38:15;100411.56;;;9.18;100.00
39891;BME280;25564;53.312;9.790;2022-12-24T14:41:01;100414.19;;;9.20;100.00